Portada
METAR-TAF:

METAR-TAF

Aeroports :

Irkutsk, Rússia

latitud: 52-16N, longitud: 104-19E, altitud: 513 m

Observació

L'informe es va fer fa 27 minuts, a les 04:00 UTC
Vent 2 kt amb direcció variable
Temperatura 11°C
Humitat 76%
Pressió 1014 hPa
Visibilitat 10 km o més
Cel cobert a una alçada de 1600 ft, Cumulonimbus.

METAR: UIII 210400Z VRB01MPS 9999 OVC016CB 11/07 Q1014 R30/290150 NOSIG RMK MT OBSC QFE716/0954

Hora: 12:27 (04:27 UTC)

Pronòstic

L'informe es va fer fa 2 hores i 27 minuts, a les 02:00 UTC
Pronòstic vàlid del 21 a les 03 UTC al 22 a les 03 UTC
Vent 2 kt amb direcció variable
Visibilitat 10 km o més
Cel ennuvolat a una alçada de 4000 ft, Cumulonimbus.
Temporalment
l' 21 a les 03 UTC al 21 a les 09 UTC
Vent 12 kt del Nord/Nord-Oest
Cel ennuvolat a una alçada de 300 ft
Cel ennuvolat a una alçada de 900 ft, Cumulonimbus.

TAF: UIII 210200Z 2103/2203 VRB01MPS 9999 BKN040CB TEMPO 2103/2109 33006MPS BKN003 BKN009CB

Observacions i pronòstics meteorològics de més de 4000 aeroports (METAR i TAF).

Les estacions disponibles són els punts grocs i vermells al mapa.

Posi el ratolí al punt desitjat per veure el nom de l'estació.

Feu clic per veure les observacions i els pronòstics meteorològics.

Per canviar el mapa: feu clic els botons verds amb una creu de color negre per apropar; al botó verd amb un guió per allunyar la imatge; o en les fletxes verdes per a mapes adjacents.


METAR-TAF: